• Join FlightAware (Why Join?)
  • Login
  • US Flag 
05:49AM EDT


 

Airport Tracker/Info


-or-


 

Live Flight TrackerFlight Track Log ✈ DAL694 ✈ 09-May-2012 ✈ KFLL - KJFK

Flight Track Log - Related Links

Times and Time Zones

All times are in EDT time to prevent confusion due to time zone crossing. See the DAL694 flight status page for this flight to view local times or setup timezone preferences in your user account.

Time Position Orientation Groundspeed Altitude Reporting Facility
EDT Latitude Longitude Course Direction KTS MPH feet Rate Location/Type
07:34AM 26.0750 -80.1297 84° East 158 182 1,200  Level Miami Center
07:36AM 26.0833 -80.0419 69° East 239 275 3,800 2,220 Climbing Miami Center
07:37AM 26.1189 -79.9411 68° East 290 334 7,100 2,700 Climbing Miami Center
07:38AM 26.1500 -79.8542 64° Northeast 296 341 10,100 2,820 Climbing Miami Center
07:39AM 26.1872 -79.7694 53° Northeast 296 341 12,800 1,920 Climbing Miami Center
07:40AM 26.2453 -79.6828 53° Northeast 314 361 14,000 1,500 Climbing Miami Center
07:41AM 26.3119 -79.5825 54° Northeast 376 433 15,900 2,160 Climbing Miami Center
07:42AM 26.3892 -79.4658 39° Northeast 417 480 18,400 2,160 Climbing Miami Center
07:43AM 26.4742 -79.3889 31° Northeast 432 497 20,300 1,680 Climbing Miami Center
07:44AM 26.5797 -79.3192 29° Northeast 438 504 21,800 1,560 Climbing Miami Center
07:45AM 26.6936 -79.2494 29° Northeast 448 516 23,500 1,800 Climbing Miami Center
07:46AM 26.8056 -79.1794 30° Northeast 453 521 25,500 1,920 Climbing Miami Center
07:47AM 26.9153 -79.1094 30° Northeast 458 527 27,400 2,040 Climbing Miami Center
07:48AM 27.0228 -79.0392 30° Northeast 453 521 29,600 1,860 Climbing Miami Center
07:49AM 27.1261 -78.9711 29° Northeast 437 503 31,200 1,380 Climbing Miami Center
07:50AM 27.2336 -78.9053 29° Northeast 432 497 32,400 1,080 Climbing Miami Center
07:51AM 27.3494 -78.8325 19° North 427 491 33,400 900 Climbing Miami Center
07:52AM 27.4608 -78.7900 North 416 479 34,200 720 Climbing Miami Center
07:53AM 27.5822 -78.7708 North 423 487 34,900 360 Climbing Miami Center
07:54AM 27.6867 -78.7561 North 423 487 35,000  Climbing Miami Center
07:55AM 27.8186 -78.7397 North 428 493 35,000  Level Miami Center
07:56AM 27.9336 -78.7228 North 428 493 35,000  Level Miami Center
07:57AM 28.0528 -78.7058 North 428 493 35,000  Level Miami Center
07:58AM 28.1678 -78.6889 North 420 483 35,000  Level Miami Center
07:59AM 28.2850 -78.6719 North 427 491 35,000  Level Miami Center
08:00AM 28.4042 -78.6550 North 421 484 35,000  Level Miami Center
08:01AM 28.5192 -78.6356 North 421 484 35,000  Level Miami Center
08:02AM 28.6364 -78.6208 North 426 490 35,000  Level Miami Center
08:03AM 28.7556 -78.6014 North 426 490 35,000  Level Miami Center
08:04AM 28.8725 -78.5819 355° North 426 490 35,000  Level Miami Center
08:05AM 28.9933 -78.5933 353° North 426 490 35,000  Level Miami Center
08:06AM 29.1100 -78.6094 356° North 420 483 35,000  Level Miami Center
08:07AM 29.2247 -78.6183 354° North 420 483 35,000  Level Miami Center
08:08AM 29.3436 -78.6322 356° North 425 489 35,000  Level Miami Center
08:09AM 29.4581 -78.6411 356° North 420 483 35,000  Level Miami Center
08:10AM 29.5747 -78.6503 354° North 426 490 35,000  Level Miami Center
08:12AM 29.8589 -78.6825 356° North 441 507 35,000  Level Jacksonville Center
08:13AM 29.9761 -78.6919 352° North 428 493 35,000  Level Jacksonville Center
08:14AM 30.0978 -78.7106 355° North 425 489 35,000  Level Jacksonville Center
08:15AM 30.2172 -78.7222 356° North 432 497 35,000  Level Jacksonville Center
08:16AM 30.3258 -78.7319 354° North 405 466 35,000  Level Jacksonville Center
08:17AM 30.4475 -78.7458 356° North 419 482 35,000  Level Jacksonville Center
08:18AM 30.5625 -78.7553 354° North 425 489 35,000  Level Jacksonville Center
08:19AM 30.6861 -78.7694 355° North 431 496 35,000  Level Jacksonville Center
08:20AM 30.8097 -78.7808 355° North 431 496 35,000  Level Jacksonville Center
08:21AM 30.9228 -78.7931 358° North 426 490 35,000  Level Jacksonville Center
08:22AM 31.0525 -78.7994 North 455 524 35,000  Level Jacksonville Center
08:23AM 31.1692 -78.7944 17° North 436 502 35,000  Level Jacksonville Center
08:24AM 31.2869 -78.7528 18° North 436 502 35,000  Level Jacksonville Center
08:25AM 31.4022 -78.7086 17° North 434 499 35,000  Level Jacksonville Center
08:26AM 31.5200 -78.6669 20° North 434 499 35,000  Level Jacksonville Center
08:27AM 31.6372 -78.6175 21° North 437 503 35,000  Level Jacksonville Center
08:28AM 31.7525 -78.5658 21° North 441 507 35,000  Level Jacksonville Center
08:29AM 31.8697 -78.5139 21° North 442 509 35,000  Level Jacksonville Center
08:30AM 31.9847 -78.4619 22° Northeast 442 509 35,000  Level Jacksonville Center
08:31AM 32.0997 -78.4072 20° North 442 509 35,000  Level Jacksonville Center
08:32AM 32.2189 -78.3550 21° North 442 509 35,000  Level Jacksonville Center
08:33AM 32.3317 -78.3025 20° North 442 509 35,000  Level Jacksonville Center
08:34AM 32.4344 -78.2581 21° North 437 503 35,000  Level Jacksonville Center
08:35AM 32.5494 -78.2053 22° Northeast 437 503 35,000  Level Jacksonville Center
08:36AM 32.6642 -78.1500 22° Northeast 444 511 35,000  Level Jacksonville Center
08:37AM 32.7811 -78.0944 22° Northeast 444 511 35,000  Level Jacksonville Center
08:38AM 32.8958 -78.0389 21° North 444 511 35,000  Level Jacksonville Center
08:39AM 33.0106 -77.9856 20° North 444 511 35,000  Level Jacksonville Center
08:40AM 33.1275 -77.9347 22° Northeast 444 511 35,000  Level Jacksonville Center
08:42AM 33.3311 -77.8358 22° Northeast 436 502 35,000  Level Washington Center
08:43AM 33.4447 -77.7817 23° Northeast 436 502 35,000  Level Washington Center
08:44AM 33.5583 -77.7250 22° Northeast 436 502 35,000  Level Washington Center
08:45AM 33.6719 -77.6703 22° Northeast 441 507 35,000  Level Washington Center
08:46AM 33.7856 -77.6158 21° North 441 507 35,000  Level Washington Center
08:47AM 33.8886 -77.5683 22° Northeast 436 502 35,000  Level Washington Center
08:48AM 34.0042 -77.5133 21° North 441 507 35,000  Level Washington Center
08:49AM 34.1175 -77.4608 22° Northeast 441 507 35,000  Level Washington Center
08:50AM 34.2333 -77.4056 21° North 435 501 35,000  Level Washington Center
08:51AM 34.3444 -77.3528 21° North 435 501 35,000  Level Washington Center
08:52AM 34.4581 -77.2997 22° Northeast 435 501 35,000  Level Washington Center
08:53AM 34.5736 -77.2442 22° Northeast 435 501 35,000  Level Washington Center
08:54AM 34.6850 -77.1883 21° North 435 501 35,000  Level Washington Center
08:55AM 34.8003 -77.1350 23° Northeast 435 501 35,000  Level Washington Center
08:56AM 34.9094 -77.0789 21° North 435 501 35,000  Level Washington Center
08:57AM 35.0269 -77.0250 24° Northeast 435 501 35,000  Level Washington Center
08:58AM 35.1383 -76.9636 23° Northeast 435 501 35,000  Level Washington Center
08:59AM 35.2475 -76.9069 22° Northeast 435 501 35,000  Level Washington Center
09:00AM 35.3628 -76.8503 21° North 440 506 35,000  Level Washington Center
09:01AM 35.4886 -76.7911 23° Northeast 435 501 35,000  Level Washington Center
09:02AM 35.6019 -76.7314 23° Northeast 435 501 35,000  Level Washington Center
09:03AM 35.7131 -76.6742 22° Northeast 435 501 35,000  Level Washington Center
09:04AM 35.8303 -76.6167 21° North 440 506 35,000  Level Washington Center
09:05AM 35.9436 -76.5619 22° Northeast 440 506 35,000  Level Washington Center
09:06AM 36.0586 -76.5042 21° North 435 501 35,000  Level Washington Center
09:07AM 36.1739 -76.4489 22° Northeast 435 501 35,000  Level Washington Center
09:08AM 36.2889 -76.3908 22° Northeast 435 501 35,000  Level Washington Center
09:09AM 36.4042 -76.3325 23° Northeast 435 501 35,000  Level Washington Center
09:10AM 36.5172 -76.2742 22° Northeast 435 501 35,000  Level Washington Center
09:11AM 36.6342 -76.2158 23° Northeast 435 501 35,000  Level Washington Center
09:12AM 36.7389 -76.1594 24° Northeast 435 501 35,000  Level Washington Center
09:13AM 36.8517 -76.0981 22° Northeast 440 506 35,000  Level Washington Center
09:14AM 36.9689 -76.0389 20° North 446 513 35,000  Level Washington Center
09:15AM 37.0922 -75.9825 22° Northeast 451 519 35,000  Level Washington Center
09:16AM 37.2092 -75.9231 23° Northeast 451 519 35,000  Level Washington Center
09:17AM 37.3261 -75.8608 23° Northeast 451 519 35,000  Level Washington Center
09:18AM 37.4408 -75.7986 22° Northeast 456 525 35,000  Level Washington Center
09:19AM 37.5600 -75.7386 23° Northeast 456 525 35,000  Level Washington Center
09:20AM 37.6789 -75.6758 23° Northeast 456 525 35,000  Level Washington Center
09:21AM 37.7936 -75.6128 23° Northeast 456 525 35,000  Level Washington Center
09:22AM 37.9083 -75.5497 22° Northeast 456 525 35,000  Level Washington Center
09:23AM 38.0272 -75.4889 25° Northeast 456 525 35,000  Level Washington Center
09:24AM 38.1439 -75.4203 25° Northeast 456 525 35,000  Level Washington Center
09:25AM 38.2583 -75.3511 29° Northeast 456 525 35,000  Level Washington Center
09:26AM 38.3811 -75.2658 26° Northeast 450 518 35,000  Level Washington Center
09:27AM 38.4956 -75.1939 27° Northeast 450 518 35,000  Level Washington Center
09:28AM 38.6100 -75.1189 25° Northeast 450 518 35,000  Level Washington Center
09:29AM 38.7264 -75.0489 30° Northeast 450 518 35,000  Level Washington Center
09:30AM 38.8386 -74.9653 36° Northeast 455 524 35,000 -240 Level Washington Center
09:31AM 38.9464 -74.8656 34° Northeast 461 531 34,600 -1,680 Descending Washington Center
09:32AM 39.0522 -74.7736 36° Northeast 461 531 31,700 -3,060 Descending Washington Center
09:33AM 39.1597 -74.6733 37° Northeast 466 536 28,600 -3,120 Descending Washington Center
09:34AM 39.2672 -74.5703 35° Northeast 471 542 25,600 -2,640 Descending Washington Center
09:35AM 39.3522 -74.4919 35° Northeast 469 540 23,700 -2,460 Descending New York Center
09:36AM 39.4533 -74.4006 36° Northeast 464 534 21,000 -2,340 Descending New York Center
09:37AM 39.5519 -74.3061 39° Northeast 453 521 19,100 -1,260 Descending New York Center
09:38AM 39.6531 -74.2006 40° Northeast 425 489 18,600 -1,380 Descending New York Center
09:39AM 39.7414 -74.1050 40° Northeast 410 472 16,300 -1,920 Descending New York Center
09:40AM 39.8144 -74.0247 33° Northeast 394 453 14,800 -2,400 Descending New York Center
09:41AM 39.9083 -73.9453 28° Northeast 394 453 11,500 -1,920 Descending New York Center
09:42AM 40.0061 -73.8764 30° Northeast 376 433 11,100 -240 Descending New York Center
09:43AM 40.0869 -73.8150 27° Northeast 345 397 11,100 -840 Level New York Center
09:44AM 40.1833 -73.7500 36° Northeast 326 375 9,400 -1,440 Descending New York TRACON
09:45AM 40.2336 -73.7019 31° Northeast 322 371 8,300 -1,500 Descending New York Center
09:46AM 40.3144 -73.6372 22° Northeast 317 365 6,700 -1,560 Descending New York Center
09:47AM 40.3797 -73.6019 352° North 293 337 5,300 -1,560 Descending New York Center
09:48AM 40.4586 -73.6161 360° North 258 297 3,600 -1,200 Descending New York Center
09:49AM 40.5333 -73.6167 21° North 267 307 3,000 -360 Descending New York TRACON
09:50AM 40.6000 -73.5833 360° North 269 310 2,900  Descending New York TRACON
09:51AM 40.6667 -73.5833 346° North 194 223 3,000 -300 Climbing New York TRACON
09:52AM 40.7167 -73.6000 339° North 186 214 2,300 -540 Descending New York TRACON
09:53AM 40.7500 -73.6167 270° West 162 186 2,000 -180 Descending New York TRACON
09:54AM 40.7500 -73.6667 217° Southwest 148 170 2,000 -240 Level New York TRACON
09:55AM 40.7167 -73.7000 217° Southwest 130 150 1,500 -600 Descending New York TRACON
09:56AM 40.6833 -73.7333 201° Southwest 126 145 900 -660 Descending New York TRACON
09:57AM 40.6500 -73.7500 201° Southwest 129 148 200 -720 Descending New York TRACON